Time;durP1;ratioP1;P1;durP2;ratioP2;P2;SDS_P1;SDS_P2;PMS_P1;PMS_P2;Temp;Humidity;BMP_temperature;BMP_pressure;BME280_temperature;BME280_humidity;BME280_pressure;Samples;Min_cycle;Max_cycle;Signal;HPM_P1;HPM_P2
2023/01/17 00:01:51;;;;;;;1.07;0.90;;;2.50;99.90;;;;;;4975257;28;20181;-82
2023/01/17 00:09:54;;;;;;;1.10;1.00;;;2.60;99.90;;;;;;4974995;28;20175;-82
2023/01/17 00:12:21;;;;;;;1.10;1.00;;;2.50;99.90;;;;;;4957308;28;20215;-83
2023/01/17 00:14:47;;;;;;;1.20;1.10;;;2.60;99.90;;;;;;4957696;28;20175;-82
2023/01/17 00:17:13;;;;;;;1.30;1.20;;;2.60;99.90;;;;;;4975138;28;20196;-82
2023/01/17 01:35:06;;;;;;;2.20;2.00;;;2.80;99.90;;;;;;4973930;28;20648;-82
2023/01/17 01:37:31;;;;;;;3.13;2.00;;;2.80;99.90;;;;;;4956012;28;20295;-83
2023/01/17 01:39:57;;;;;;;2.90;2.03;;;2.80;99.90;;;;;;4973062;28;20663;-82
2023/01/17 01:42:22;;;;;;;3.20;2.00;;;2.70;99.90;;;;;;4973637;28;20189;-82
2023/01/17 01:44:53;;;;;;;2.30;2.00;;;2.80;99.90;;;;;;4956183;28;20264;-83
2023/01/17 01:47:21;;;;;;;2.00;1.77;;;2.80;99.90;;;;;;4973518;28;20189;-82
2023/01/17 01:49:47;;;;;;;2.53;2.23;;;2.80;99.90;;;;;;4973202;28;20177;-82
2023/01/17 01:52:14;;;;;;;2.57;2.00;;;2.80;99.90;;;;;;4973689;28;20180;-82
2023/01/17 01:54:48;;;;;;;2.57;2.10;;;2.80;99.90;;;;;;4956148;28;20180;-82
2023/01/17 01:57:17;;;;;;;3.53;2.20;;;2.80;99.90;;;;;;4956132;28;20203;-82
2023/01/17 01:59:51;;;;;;;3.07;2.17;;;2.80;99.90;;;;;;4973105;28;20248;-82
2023/01/17 02:02:17;;;;;;;2.20;2.00;;;2.80;99.90;;;;;;4955907;28;20196;-83
2023/01/17 02:04:43;;;;;;;4.07;1.80;;;2.80;99.90;;;;;;4955970;28;20516;-82
2023/01/17 02:07:17;;;;;;;2.37;1.80;;;2.80;99.90;;;;;;4973299;28;20185;-83
2023/01/17 02:09:43;;;;;;;3.30;2.10;;;2.70;99.90;;;;;;4973311;28;20228;-83
2023/01/17 02:12:09;;;;;;;4.07;1.90;;;2.60;99.90;;;;;;4955776;28;20176;-83
2023/01/17 02:14:35;;;;;;;2.57;1.57;;;2.70;99.90;;;;;;4955947;28;20172;-83
2023/01/17 02:17:19;;;;;;;2.43;1.87;;;2.70;99.90;;;;;;4956264;28;20180;-82
2023/01/17 02:19:58;;;;;;;2.47;1.90;;;2.70;99.90;;;;;;4973020;28;20256;-82
2023/01/17 02:22:52;;;;;;;4.90;2.00;;;2.60;99.90;;;;;;4973168;28;20220;-82
2023/01/17 02:25:42;;;;;;;4.47;2.07;;;2.60;99.90;;;;;;4973162;28;20172;-82
2023/01/17 02:28:45;;;;;;;5.73;2.40;;;2.60;99.90;;;;;;4956004;28;20183;-82
2023/01/17 02:31:35;;;;;;;2.90;2.40;;;2.50;99.90;;;;;;4973174;28;20176;-82
2023/01/17 02:34:24;;;;;;;4.57;2.37;;;2.60;99.90;;;;;;4956021;28;20204;-82
2023/01/17 02:36:58;;;;;;;3.40;1.90;;;2.50;99.90;;;;;;4950894;28;20195;-82
2023/01/17 02:39:33;;;;;;;3.57;2.17;;;2.50;99.90;;;;;;4976538;28;20184;-83
2023/01/17 02:42:08;;;;;;;3.53;2.23;;;2.60;99.90;;;;;;4959244;28;20552;-82
2023/01/17 02:44:40;;;;;;;3.47;1.90;;;2.60;99.90;;;;;;4976852;28;20177;-82
2023/01/17 02:47:23;;;;;;;3.87;2.10;;;2.50;99.90;;;;;;4959183;28;20223;-82
2023/01/17 02:49:51;;;;;;;3.57;2.13;;;2.50;99.90;;;;;;4976508;28;20187;-82
2023/01/17 02:52:48;;;;;;;3.73;2.40;;;2.60;99.90;;;;;;4959212;28;20210;-82
2023/01/17 02:55:32;;;;;;;3.37;2.10;;;2.50;99.90;;;;;;4927778;28;20185;-82
2023/01/17 02:58:31;;;;;;;4.90;2.60;;;2.50;99.90;;;;;;4976452;28;20246;-82
2023/01/17 03:01:02;;;;;;;2.87;2.37;;;2.50;99.90;;;;;;4976522;28;20179;-82
2023/01/17 03:03:55;;;;;;;2.70;2.03;;;2.40;99.90;;;;;;4976304;28;20197;-82
2023/01/17 03:06:36;;;;;;;4.50;2.40;;;2.40;99.90;;;;;;4976179;28;20184;-82
2023/01/17 03:09:02;;;;;;;3.77;2.07;;;2.30;99.90;;;;;;4976359;28;20184;-82
2023/01/17 03:11:28;;;;;;;2.90;2.13;;;2.20;99.90;;;;;;4958578;28;20188;-82
2023/01/17 03:13:55;;;;;;;4.83;2.03;;;2.10;99.90;;;;;;4958600;28;20219;-82
2023/01/17 03:16:23;;;;;;;3.13;2.40;;;2.20;99.90;;;;;;4976087;28;20282;-82
2023/01/17 03:18:49;;;;;;;2.63;2.23;;;2.20;99.90;;;;;;4958584;28;20211;-82
2023/01/17 03:21:15;;;;;;;4.43;2.20;;;2.20;99.90;;;;;;4975799;28;20172;-82
2023/01/17 03:23:40;;;;;;;3.37;2.50;;;2.10;99.90;;;;;;4976245;28;20279;-82
2023/01/17 03:26:06;;;;;;;3.73;2.03;;;2.10;99.90;;;;;;4976094;28;20173;-82
2023/01/17 03:28:32;;;;;;;3.83;2.23;;;2.10;99.90;;;;;;4958714;28;20251;-82
2023/01/17 03:30:57;;;;;;;3.83;2.20;;;2.10;99.90;;;;;;4958361;28;20172;-82
2023/01/17 03:33:24;;;;;;;2.77;2.00;;;2.10;99.90;;;;;;4975689;28;20228;-82
2023/01/17 03:35:49;;;;;;;2.93;1.93;;;2.10;99.90;;;;;;4975717;28;20730;-82
2023/01/17 03:38:15;;;;;;;2.77;2.00;;;2.10;99.90;;;;;;4975717;28;20300;-82
2023/01/17 03:40:41;;;;;;;2.50;1.80;;;2.10;99.90;;;;;;4975256;28;20200;-83
2023/01/17 03:43:07;;;;;;;3.07;2.20;;;2.10;99.90;;;;;;4958181;28;20192;-82
2023/01/17 03:45:33;;;;;;;3.77;2.00;;;2.10;99.90;;;;;;4975452;28;20255;-82
2023/01/17 03:47:59;;;;;;;2.87;1.77;;;2.10;99.90;;;;;;4974855;28;20165;-82
2023/01/17 03:50:25;;;;;;;3.40;2.13;;;2.10;99.90;;;;;;4975323;28;20176;-82
2023/01/17 03:52:50;;;;;;;2.90;2.30;;;2.00;99.90;;;;;;4975476;28;20207;-82
2023/01/17 03:55:16;;;;;;;2.97;1.90;;;2.10;99.90;;;;;;4958342;28;20180;-82
2023/01/17 03:57:42;;;;;;;3.87;2.00;;;2.10;99.90;;;;;;4958236;28;20679;-82
2023/01/17 04:00:09;;;;;;;3.67;1.90;;;2.20;99.90;;;;;;4957847;28;20196;-83
2023/01/17 04:02:34;;;;;;;2.50;1.80;;;2.10;99.90;;;;;;4957812;28;20192;-82
2023/01/17 04:05:00;;;;;;;3.70;1.77;;;2.10;99.90;;;;;;4957944;28;20180;-82
2023/01/17 04:07:26;;;;;;;3.77;1.53;;;2.10;99.90;;;;;;4957864;28;20639;-82
2023/01/17 04:09:51;;;;;;;4.80;2.40;;;2.10;99.90;;;;;;4975011;28;20217;-82
2023/01/17 04:12:17;;;;;;;2.87;2.00;;;2.10;99.90;;;;;;4957813;28;20299;-82
2023/01/17 04:14:43;;;;;;;2.60;1.70;;;2.00;99.90;;;;;;4957652;28;20191;-82
2023/01/17 04:17:13;;;;;;;2.17;1.83;;;2.00;99.90;;;;;;4975267;28;20187;-82
2023/01/17 04:19:39;;;;;;;3.00;1.80;;;2.00;99.90;;;;;;4974787;28;20164;-82
2023/01/17 04:22:05;;;;;;;2.77;1.70;;;2.00;99.90;;;;;;4957631;28;20252;-82
2023/01/17 04:24:31;;;;;;;3.30;1.77;;;2.00;99.90;;;;;;4957498;28;20276;-82
2023/01/17 04:26:57;;;;;;;2.43;1.77;;;2.00;99.90;;;;;;4957507;28;20176;-82
2023/01/17 04:29:22;;;;;;;2.97;1.77;;;2.00;99.90;;;;;;4957525;28;20180;-82
2023/01/17 04:31:48;;;;;;;3.37;1.83;;;2.00;99.90;;;;;;4957389;28;20184;-82
2023/01/17 04:34:13;;;;;;;2.23;1.80;;;2.00;99.90;;;;;;4957285;28;20204;-82
2023/01/17 04:36:39;;;;;;;1.93;1.60;;;2.00;99.90;;;;;;4957509;28;20222;-82
2023/01/17 04:39:05;;;;;;;2.13;1.67;;;1.90;99.90;;;;;;4957252;28;20204;-83
2023/01/17 04:41:31;;;;;;;2.60;1.80;;;1.90;99.90;;;;;;4956934;28;20180;-82
2023/01/17 04:43:56;;;;;;;3.03;1.80;;;1.90;99.90;;;;;;4974576;28;20231;-82
2023/01/17 04:46:23;;;;;;;3.20;2.07;;;1.90;99.90;;;;;;4974547;28;20211;-82
2023/01/17 04:48:48;;;;;;;4.10;1.77;;;1.90;99.90;;;;;;4974503;28;20194;-82
2023/01/17 04:51:14;;;;;;;1.90;1.60;;;1.90;99.90;;;;;;4956866;28;20553;-82
2023/01/17 04:53:40;;;;;;;3.83;1.90;;;1.90;99.90;;;;;;4956920;28;20192;-84
2023/01/17 04:56:05;;;;;;;2.97;1.80;;;1.90;99.90;;;;;;4974165;28;20263;-82
2023/01/17 04:58:32;;;;;;;2.53;1.53;;;1.90;99.90;;;;;;4974215;28;20262;-82
2023/01/17 05:01:03;;;;;;;3.10;1.67;;;1.90;99.90;;;;;;4957040;28;20534;-82
2023/01/17 05:03:28;;;;;;;4.07;1.57;;;1.90;99.90;;;;;;4956762;28;20192;-82
2023/01/17 05:05:54;;;;;;;2.07;1.70;;;1.90;99.90;;;;;;4956852;28;20223;-82
2023/01/17 05:08:20;;;;;;;2.10;1.63;;;1.90;99.90;;;;;;4956734;28;20271;-82
2023/01/17 05:10:46;;;;;;;1.50;1.30;;;1.90;99.90;;;;;;4973868;28;20254;-82
2023/01/17 05:13:11;;;;;;;3.43;2.00;;;1.90;99.90;;;;;;4956593;28;20222;-82
2023/01/17 05:15:37;;;;;;;2.87;1.50;;;1.80;99.90;;;;;;4956631;28;20173;-82
2023/01/17 05:18:07;;;;;;;2.10;1.47;;;1.90;99.90;;;;;;4956687;28;20572;-82
2023/01/17 05:20:34;;;;;;;2.23;1.63;;;1.90;99.90;;;;;;4973692;28;20540;-82
2023/01/17 05:23:00;;;;;;;2.53;1.50;;;1.80;99.90;;;;;;4973744;28;20203;-82
2023/01/17 05:25:30;;;;;;;1.80;1.40;;;1.90;99.90;;;;;;4956774;28;20180;-82
2023/01/17 05:27:58;;;;;;;4.20;1.53;;;1.90;99.90;;;;;;4956442;28;20254;-82
2023/01/17 05:30:25;;;;;;;1.70;1.43;;;1.80;99.90;;;;;;4973654;28;20208;-82
2023/01/17 05:32:52;;;;;;;3.30;1.53;;;1.80;99.90;;;;;;4956226;28;20200;-82
2023/01/17 05:35:20;;;;;;;2.37;1.50;;;1.80;99.90;;;;;;4956413;28;20185;-82
2023/01/17 05:37:47;;;;;;;2.70;1.47;;;1.80;99.90;;;;;;4973534;28;20222;-83
2023/01/17 05:40:17;;;;;;;3.60;1.50;;;1.80;99.90;;;;;;4973257;28;20195;-82
2023/01/17 05:42:48;;;;;;;2.30;1.50;;;1.80;99.90;;;;;;4973379;28;20184;-82
2023/01/17 05:45:15;;;;;;;3.73;1.30;;;1.80;99.90;;;;;;4956304;28;20168;-82
2023/01/17 05:47:45;;;;;;;1.63;1.23;;;1.80;99.90;;;;;;4973483;28;20647;-82
2023/01/17 05:50:14;;;;;;;1.40;1.30;;;1.90;99.90;;;;;;4955981;28;20206;-82
2023/01/17 05:52:40;;;;;;;1.83;1.50;;;1.90;99.90;;;;;;4956258;28;20207;-82
2023/01/17 05:55:06;;;;;;;2.37;1.27;;;1.80;99.90;;;;;;4973862;28;20267;-82
2023/01/17 05:57:33;;;;;;;2.00;1.57;;;1.80;99.90;;;;;;4956081;28;20213;-82
2023/01/17 05:59:59;;;;;;;2.77;1.40;;;1.80;99.90;;;;;;4956139;28;20198;-82
2023/01/17 06:02:24;;;;;;;2.10;1.47;;;1.70;99.90;;;;;;4955807;28;20196;-83
2023/01/17 06:04:53;;;;;;;2.43;1.40;;;1.70;99.90;;;;;;4956033;28;20183;-82
2023/01/17 06:07:19;;;;;;;3.20;1.50;;;1.70;99.90;;;;;;4955997;28;20183;-82
2023/01/17 06:09:44;;;;;;;1.47;1.30;;;1.70;99.90;;;;;;4955909;28;20171;-89
2023/01/17 06:12:10;;;;;;;2.67;1.33;;;1.60;99.90;;;;;;4959380;28;20639;-89
2023/01/17 06:14:36;;;;;;;2.77;1.40;;;1.60;99.90;;;;;;4960075;28;20188;-89
2023/01/17 06:17:01;;;;;;;3.63;1.67;;;1.50;99.90;;;;;;4976944;28;20185;-89
2023/01/17 06:19:27;;;;;;;1.63;1.40;;;1.50;99.90;;;;;;4959654;28;20179;-91
2023/01/17 06:21:52;;;;;;;3.27;1.70;;;1.40;99.90;;;;;;4959806;28;20168;-89
2023/01/17 06:24:18;;;;;;;3.60;1.60;;;1.40;99.90;;;;;;4959608;28;20189;-89
2023/01/17 06:26:44;;;;;;;1.77;1.60;;;1.40;99.90;;;;;;4959682;28;20202;-89
2023/01/17 06:29:10;;;;;;;2.33;1.90;;;1.30;99.90;;;;;;4959438;28;20180;-89
2023/01/17 06:31:36;;;;;;;1.50;1.40;;;1.30;99.90;;;;;;4976788;28;20214;-89
2023/01/17 06:34:02;;;;;;;3.70;1.87;;;1.20;99.90;;;;;;4959685;28;20204;-89
2023/01/17 06:36:28;;;;;;;2.30;1.60;;;1.20;99.90;;;;;;4959635;28;20191;-89
2023/01/17 06:38:54;;;;;;;2.87;1.70;;;1.20;99.90;;;;;;4976668;28;20208;-89
2023/01/17 06:41:22;;;;;;;2.93;1.80;;;1.10;99.90;;;;;;4976220;28;20522;-88
2023/01/17 06:43:47;;;;;;;4.27;1.60;;;1.10;99.90;;;;;;4959573;28;20196;-88
2023/01/17 06:46:13;;;;;;;3.07;1.40;;;1.10;99.90;;;;;;4959349;28;20184;-89
2023/01/17 06:48:42;;;;;;;2.30;1.60;;;1.00;99.90;;;;;;4976751;28;20267;-89
2023/01/17 06:51:08;;;;;;;2.80;1.40;;;1.00;99.90;;;;;;4959129;28;20183;-89
2023/01/17 06:53:33;;;;;;;3.40;1.70;;;1.00;99.90;;;;;;4958947;28;20199;-87
2023/01/17 06:55:59;;;;;;;3.10;1.80;;;1.10;99.90;;;;;;4976749;28;20184;-88
2023/01/17 06:58:24;;;;;;;3.57;2.40;;;1.00;99.90;;;;;;4959301;28;20582;-87
2023/01/17 07:00:50;;;;;;;4.17;1.90;;;1.00;99.90;;;;;;4976416;28;20179;-87
2023/01/17 07:03:21;;;;;;;4.77;2.53;;;1.20;99.90;;;;;;4958915;28;20196;-88
2023/01/17 07:05:47;;;;;;;4.13;2.37;;;1.50;99.90;;;;;;4959001;28;20180;-84
2023/01/17 07:08:15;;;;;;;3.47;2.10;;;1.40;99.90;;;;;;4976115;28;20218;-86
2023/01/17 07:10:40;;;;;;;4.30;2.97;;;1.30;99.90;;;;;;4975870;28;20279;-88
2023/01/17 07:13:06;;;;;;;4.97;3.10;;;1.20;99.90;;;;;;4959695;28;20295;-88
2023/01/17 07:15:31;;;;;;;3.43;2.50;;;1.10;99.90;;;;;;4958762;28;20184;-85
2023/01/17 07:18:00;;;;;;;3.10;2.10;;;1.00;99.90;;;;;;4958157;28;20210;-86
2023/01/17 07:20:25;;;;;;;3.53;2.10;;;1.00;99.90;;;;;;4975776;28;20169;-87
2023/01/17 07:22:51;;;;;;;6.30;2.33;;;1.00;99.90;;;;;;4957324;28;20192;-86
2023/01/17 07:25:17;;;;;;;3.70;2.30;;;1.00;99.90;;;;;;4958656;28;20216;-86
2023/01/17 07:27:43;;;;;;;5.63;3.23;;;0.90;99.90;;;;;;4958441;28;20223;-89
2023/01/17 07:30:09;;;;;;;3.63;2.03;;;0.90;99.90;;;;;;4958474;28;20211;-84
2023/01/17 07:32:36;;;;;;;3.53;2.27;;;1.00;99.90;;;;;;4975677;28;20232;-87
2023/01/17 07:35:01;;;;;;;3.67;2.00;;;0.90;99.90;;;;;;4976589;28;20191;-87
2023/01/17 07:37:27;;;;;;;3.17;2.20;;;0.90;99.90;;;;;;4959979;28;20270;-87
2023/01/17 07:39:53;;;;;;;5.30;2.40;;;1.00;99.90;;;;;;4959879;28;20267;-88
2023/01/17 07:42:19;;;;;;;8.27;3.10;;;1.00;99.90;;;;;;4960150;28;20200;-87
2023/01/17 07:44:44;;;;;;;3.83;2.63;;;1.00;99.90;;;;;;4976890;28;20172;-87
2023/01/17 07:47:10;;;;;;;3.40;2.30;;;1.00;99.90;;;;;;4959598;28;20549;-88
2023/01/17 07:49:36;;;;;;;6.57;2.77;;;1.00;99.90;;;;;;4976644;28;20639;-85
2023/01/17 07:52:02;;;;;;;4.70;2.60;;;1.00;99.90;;;;;;4972133;28;20192;-88
2023/01/17 07:54:28;;;;;;;4.17;2.67;;;1.00;99.90;;;;;;4983055;28;20187;-88
2023/01/17 07:56:53;;;;;;;5.83;2.63;;;1.00;99.90;;;;;;4994448;28;20180;-88
2023/01/17 07:59:19;;;;;;;3.37;2.87;;;1.10;99.90;;;;;;4977224;28;20291;-88
2023/01/17 08:01:44;;;;;;;2.97;2.20;;;1.00;99.90;;;;;;4976648;28;20713;-88
2023/01/17 08:04:10;;;;;;;3.63;2.30;;;1.00;99.90;;;;;;4993435;28;20229;-88
2023/01/17 08:06:38;;;;;;;4.13;2.50;;;1.10;99.90;;;;;;4975736;28;20176;-88
2023/01/17 08:09:03;;;;;;;6.17;2.37;;;1.10;99.90;;;;;;4993671;28;20202;-88
2023/01/17 08:11:29;;;;;;;4.37;2.07;;;1.00;99.90;;;;;;4976109;28;20233;-88
2023/01/17 08:13:58;;;;;;;2.30;2.10;;;0.90;99.90;;;;;;4976132;28;20223;-88
2023/01/17 08:16:24;;;;;;;5.30;2.30;;;0.80;99.90;;;;;;4977006;28;20176;-88
2023/01/17 08:18:50;;;;;;;2.97;2.17;;;0.80;99.90;;;;;;4976996;28;20211;-88
2023/01/17 08:21:16;;;;;;;3.07;2.37;;;0.80;99.90;;;;;;4994165;28;20206;-88
2023/01/17 08:23:45;;;;;;;5.63;2.73;;;0.80;99.90;;;;;;4994209;28;20203;-88
2023/01/17 08:26:20;;;;;;;3.57;2.70;;;0.70;99.90;;;;;;4976701;28;20175;-88
2023/01/17 08:29:02;;;;;;;4.30;2.80;;;0.60;99.90;;;;;;4994012;28;20165;-88
2023/01/17 08:31:29;;;;;;;4.70;2.70;;;0.60;99.90;;;;;;4994158;28;20183;-88
2023/01/17 08:33:56;;;;;;;4.40;2.50;;;0.60;99.90;;;;;;4976372;28;20257;-88
2023/01/17 08:36:24;;;;;;;4.00;2.90;;;0.70;99.90;;;;;;4993874;28;20213;-88
2023/01/17 08:38:51;;;;;;;4.33;2.80;;;0.70;99.90;;;;;;4993679;28;20217;-88
2023/01/17 08:41:20;;;;;;;5.07;2.80;;;0.80;99.90;;;;;;4976583;28;20176;-89
2023/01/17 08:43:50;;;;;;;4.67;2.73;;;0.80;99.90;;;;;;4993775;28;20198;-88
2023/01/17 08:46:17;;;;;;;4.33;2.80;;;0.90;99.90;;;;;;4976350;28;20171;-87
2023/01/17 08:48:43;;;;;;;4.97;3.07;;;0.90;99.90;;;;;;4993651;28;20189;-88
2023/01/17 08:51:08;;;;;;;3.40;2.60;;;1.00;99.90;;;;;;4976138;28;20175;-88
2023/01/17 08:53:34;;;;;;;4.37;3.10;;;1.00;99.90;;;;;;4993449;28;20195;-88
2023/01/17 08:56:01;;;;;;;4.50;2.93;;;1.00;99.90;;;;;;4976485;28;20187;-87
2023/01/17 08:58:28;;;;;;;3.73;2.80;;;1.10;99.90;;;;;;4976236;28;20238;-88
2023/01/17 09:00:54;;;;;;;4.23;2.40;;;1.10;99.90;;;;;;4975938;28;20176;-90
2023/01/17 09:03:20;;;;;;;4.20;2.57;;;1.20;99.90;;;;;;4975996;28;20195;-87
2023/01/17 09:05:45;;;;;;;4.83;2.80;;;1.30;99.90;;;;;;4975685;28;20269;-88
2023/01/17 09:08:11;;;;;;;4.97;3.10;;;1.40;99.90;;;;;;4993532;28;20306;-88
2023/01/17 09:10:36;;;;;;;5.30;2.83;;;1.60;99.90;;;;;;4993233;28;20172;-89
2023/01/17 09:13:05;;;;;;;5.50;3.47;;;1.70;99.90;;;;;;4975889;28;20246;-90
2023/01/17 09:15:31;;;;;;;4.73;3.47;;;1.80;99.90;;;;;;4975840;28;20168;-89
2023/01/17 09:17:56;;;;;;;6.00;3.43;;;1.90;99.90;;;;;;4975705;28;20195;-89
2023/01/17 09:20:23;;;;;;;5.53;3.30;;;2.00;99.90;;;;;;4993216;28;20211;-88
2023/01/17 09:22:49;;;;;;;3.57;2.60;;;2.10;99.90;;;;;;4993009;28;20183;-89
2023/01/17 09:25:15;;;;;;;4.40;2.70;;;2.10;99.90;;;;;;4975919;28;20254;-89
2023/01/17 09:27:45;;;;;;;4.10;2.70;;;2.20;99.90;;;;;;4975693;28;20199;-89
2023/01/17 09:30:11;;;;;;;3.67;3.00;;;2.20;99.90;;;;;;4975417;28;20175;-89
2023/01/17 09:32:37;;;;;;;6.00;2.97;;;2.20;99.90;;;;;;4975332;28;20200;-89
2023/01/17 09:35:06;;;;;;;5.27;2.90;;;2.30;99.90;;;;;;4975727;28;20180;-89
2023/01/17 09:37:31;;;;;;;5.40;2.67;;;2.30;99.90;;;;;;4975551;28;20277;-89
2023/01/17 09:39:57;;;;;;;3.93;2.57;;;2.30;99.90;;;;;;4975532;28;20722;-88
2023/01/17 09:42:32;;;;;;;3.97;2.67;;;2.30;99.90;;;;;;4975443;28;20192;-89
2023/01/17 09:44:58;;;;;;;3.73;2.57;;;2.40;99.90;;;;;;4974752;28;20218;-90
2023/01/17 09:47:42;;;;;;;5.00;3.00;;;2.40;99.90;;;;;;4975335;28;20267;-90
2023/01/17 09:50:55;;;;;;;4.97;2.80;;;2.60;99.90;;;;;;4992661;28;20255;-90
2023/01/17 09:53:21;;;;;;;3.83;2.90;;;2.60;99.90;;;;;;4971157;28;20199;-89
2023/01/17 09:55:52;;;;;;;2.80;2.40;;;2.70;99.90;;;;;;4975555;28;20585;-90
2023/01/17 09:58:33;;;;;;;4.60;2.70;;;2.80;99.90;;;;;;4992515;28;20753;-89
2023/01/17 10:00:58;;;;;;;4.20;2.70;;;2.80;99.90;;;;;;4975307;28;20198;-89
2023/01/17 10:04:02;;;;;;;3.93;2.67;;;2.80;99.90;;;;;;4975056;28;20554;-89
2023/01/17 10:06:30;;;;;;;4.03;2.50;;;2.80;99.90;;;;;;4992502;28;20199;-89
2023/01/17 10:09:20;;;;;;;2.77;2.20;;;2.60;99.90;;;;;;4975058;28;20658;-89
2023/01/17 10:12:10;;;;;;;3.67;2.57;;;2.60;99.90;;;;;;4992239;28;20190;-89
2023/01/17 10:14:44;;;;;;;2.50;2.20;;;2.40;99.90;;;;;;4975141;28;20246;-90
2023/01/17 10:17:37;;;;;;;3.10;2.20;;;2.40;99.90;;;;;;4975118;28;20269;-89
2023/01/17 10:20:14;;;;;;;3.87;2.47;;;2.20;99.90;;;;;;4992158;28;20191;-90
2023/01/17 10:23:05;;;;;;;3.70;2.37;;;2.20;99.90;;;;;;4975141;28;20720;-90
2023/01/17 10:25:47;;;;;;;5.03;2.50;;;2.20;99.90;;;;;;4992753;28;20248;-90
2023/01/17 10:28:19;;;;;;;2.60;2.20;;;2.30;99.90;;;;;;4992379;28;20191;-89
2023/01/17 10:30:50;;;;;;;5.00;2.40;;;2.40;99.90;;;;;;4974983;28;20216;-89
2023/01/17 10:33:21;;;;;;;4.47;2.53;;;2.40;99.90;;;;;;4974883;28;20697;-88
2023/01/17 10:35:56;;;;;;;3.73;2.60;;;2.50;99.90;;;;;;4975064;28;20184;-88
2023/01/17 10:38:29;;;;;;;3.07;2.40;;;2.60;99.90;;;;;;4974347;28;20207;-86
2023/01/17 10:41:02;;;;;;;2.53;2.03;;;2.60;99.90;;;;;;4973265;28;20202;-86
2023/01/17 10:44:08;;;;;;;2.53;2.10;;;2.70;99.90;;;;;;4984353;28;20192;-87
2023/01/17 10:46:42;;;;;;;3.00;2.10;;;3.20;99.90;;;;;;4990792;28;20200;-87
2023/01/17 10:49:18;;;;;;;7.63;2.47;;;3.10;99.90;;;;;;4974617;28;20188;-87
2023/01/17 10:51:59;;;;;;;3.27;1.90;;;3.10;99.90;;;;;;4974674;28;20181;-85
2023/01/17 10:54:55;;;;;;;3.60;2.00;;;3.00;99.90;;;;;;4974737;28;20213;-88
2023/01/17 10:57:23;;;;;;;2.63;2.13;;;2.90;99.90;;;;;;4947481;28;20196;-87
2023/01/17 10:59:50;;;;;;;2.17;1.90;;;2.80;99.90;;;;;;4978753;28;20530;-87
2023/01/17 11:02:35;;;;;;;3.23;1.97;;;2.70;99.90;;;;;;4979009;28;20270;-87
2023/01/17 11:05:10;;;;;;;3.70;2.10;;;2.60;99.90;;;;;;4971567;28;20180;-89
2023/01/17 11:07:36;;;;;;;3.47;1.90;;;2.70;99.90;;;;;;4966936;28;20178;-85
2023/01/17 11:10:03;;;;;;;4.57;2.40;;;2.60;99.90;;;;;;4958615;28;20178;-87
2023/01/17 11:12:40;;;;;;;3.33;1.80;;;2.60;99.90;;;;;;4968796;28;20307;-88
2023/01/17 11:15:08;;;;;;;3.60;2.23;;;2.70;99.90;;;;;;4979990;28;20318;-88
2023/01/17 11:18:02;;;;;;;2.67;1.90;;;2.70;99.90;;;;;;4958709;28;20191;-86
2023/01/17 11:20:35;;;;;;;2.50;2.00;;;2.70;99.90;;;;;;4973533;28;20181;-88
2023/01/17 11:23:13;;;;;;;2.33;1.60;;;2.70;99.90;;;;;;4975769;28;20193;-85
2023/01/17 11:25:40;;;;;;;2.10;1.50;;;2.70;99.90;;;;;;4958638;28;20256;-87
2023/01/17 11:28:29;;;;;;;5.47;2.30;;;2.70;99.90;;;;;;4958632;28;20176;-88
2023/01/17 11:31:00;;;;;;;3.63;2.37;;;3.00;99.90;;;;;;4958217;28;20208;-87
2023/01/17 11:33:33;;;;;;;3.63;1.50;;;4.50;99.90;;;;;;4958689;28;20199;-85
2023/01/17 11:35:58;;;;;;;2.67;1.63;;;4.60;99.90;;;;;;4958698;28;20179;-85
2023/01/17 11:38:24;;;;;;;2.67;1.60;;;4.20;99.90;;;;;;4975644;28;20207;-86
2023/01/17 11:41:18;;;;;;;2.60;1.50;;;3.60;99.90;;;;;;4958391;28;20548;-85
2023/01/17 11:43:51;;;;;;;3.90;1.50;;;3.20;99.90;;;;;;4989889;28;20197;-85
2023/01/17 11:46:19;;;;;;;4.00;1.80;;;2.90;99.90;;;;;;4976550;28;20184;-85
2023/01/17 11:48:58;;;;;;;3.43;1.70;;;2.70;99.90;;;;;;4974138;28;20233;-86
2023/01/17 11:51:28;;;;;;;2.37;1.50;;;2.70;99.90;;;;;;4986997;28;20181;-85
2023/01/17 11:54:15;;;;;;;2.40;1.60;;;2.70;99.90;;;;;;4968227;28;20193;-85
2023/01/17 11:56:44;;;;;;;4.73;1.97;;;2.60;99.90;;;;;;4977616;28;20177;-86
2023/01/17 11:59:25;;;;;;;3.07;1.60;;;2.60;99.90;;;;;;4976908;28;20627;-84
2023/01/17 12:02:17;;;;;;;5.17;2.30;;;2.60;99.90;;;;;;4975067;28;20176;-85
2023/01/17 12:05:00;;;;;;;4.93;3.67;;;2.70;99.90;;;;;;4958110;28;20185;-86
2023/01/17 12:07:53;;;;;;;7.37;5.47;;;2.70;99.90;;;;;;4961217;28;20264;-85
2023/01/17 12:10:31;;;;;;;3.90;3.23;;;2.70;99.90;;;;;;4972708;28;20231;-85
2023/01/17 12:16:30;;;;;;;5.30;3.30;;;2.70;99.90;;;;;;4974807;28;20613;-85
2023/01/17 12:19:20;;;;;;;4.10;2.27;;;2.70;99.90;;;;;;4969228;28;20214;-87
2023/01/17 12:21:56;;;;;;;5.80;4.17;;;2.80;99.90;;;;;;4965575;28;20239;-85
2023/01/17 12:24:57;;;;;;;2.87;2.20;;;3.00;99.90;;;;;;4966862;28;20194;-85
2023/01/17 12:27:37;;;;;;;5.57;4.97;;;3.50;99.90;;;;;;4957601;28;20180;-85
2023/01/17 12:30:23;;;;;;;3.63;2.63;;;3.90;99.90;;;;;;4957382;28;20181;-85
2023/01/17 12:32:58;;;;;;;6.33;4.43;;;4.00;99.90;;;;;;4957221;28;20196;-85
2023/01/17 12:35:40;;;;;;;3.37;2.10;;;4.30;99.90;;;;;;4957238;28;20175;-85
2023/01/17 12:38:14;;;;;;;8.67;5.80;;;4.70;99.90;;;;;;4980497;28;20245;-85
2023/01/17 12:40:50;;;;;;;2.43;2.20;;;5.20;99.90;;;;;;4964932;28;20167;-85
2023/01/17 12:43:31;;;;;;;4.60;3.40;;;5.00;99.90;;;;;;4957161;28;20199;-85
2023/01/17 12:46:02;;;;;;;12.67;6.97;;;4.80;99.90;;;;;;4974390;28;20172;-86
2023/01/17 12:48:33;;;;;;;5.90;3.63;;;4.60;99.90;;;;;;4957194;28;20208;-85
2023/01/17 12:51:17;;;;;;;2.30;1.63;;;4.90;99.90;;;;;;4957038;28;20206;-86
2023/01/17 12:54:04;;;;;;;3.57;1.90;;;5.30;99.90;;;;;;4957101;28;20224;-85
2023/01/17 12:56:46;;;;;;;1.47;1.30;;;5.90;99.90;;;;;;4956709;28;20183;-87
2023/01/17 12:59:25;;;;;;;2.43;1.40;;;5.80;99.90;;;;;;4974412;28;20192;-86
2023/01/17 13:01:58;;;;;;;1.87;1.50;;;6.10;99.90;;;;;;4956712;28;20183;-86
2023/01/17 13:04:31;;;;;;;2.13;1.43;;;6.10;99.90;;;;;;4974585;28;20181;-87
2023/01/17 13:07:45;;;;;;;2.53;1.50;;;6.00;99.90;;;;;;4956611;28;20235;-87
2023/01/17 13:10:24;;;;;;;2.23;1.53;;;6.20;99.90;;;;;;4943799;28;20212;-86
2023/01/17 13:12:53;;;;;;;1.70;1.50;;;6.20;99.90;;;;;;4974788;28;20704;-87
2023/01/17 13:15:23;;;;;;;2.47;1.40;;;6.30;99.90;;;;;;4959602;28;20176;-87
2023/01/17 13:18:22;;;;;;;2.17;1.27;;;6.50;99.90;;;;;;4987446;28;20206;-87
2023/01/17 13:21:03;;;;;;;2.43;1.33;;;6.70;98.00;;;;;;4970949;28;20272;-86
2023/01/17 13:23:55;;;;;;;2.33;1.73;;;6.30;97.90;;;;;;4967324;28;20197;-87
2023/01/17 13:26:52;;;;;;;3.07;2.13;;;6.50;98.90;;;;;;4993192;28;20174;-87
2023/01/17 13:29:35;;;;;;;2.10;1.40;;;6.80;99.70;;;;;;4992988;28;20186;-87
2023/01/17 13:32:22;;;;;;;2.63;1.40;;;7.10;97.20;;;;;;4975626;28;20183;-88
2023/01/17 13:35:31;;;;;;;2.67;1.30;;;7.10;92.80;;;;;;4975788;28;20183;-86
2023/01/17 13:38:12;;;;;;;1.40;1.30;;;7.10;93.20;;;;;;4932591;29;20206;-86
2023/01/17 13:41:02;;;;;;;2.87;1.50;;;6.70;92.30;;;;;;4972596;28;20206;-84
2023/01/17 13:43:38;;;;;;;2.20;1.30;;;6.60;93.30;;;;;;4992660;28;20201;-85
2023/01/17 13:46:05;;;;;;;2.20;1.40;;;6.50;93.90;;;;;;4993040;28;20659;-87
2023/01/17 13:48:39;;;;;;;2.40;1.30;;;6.40;93.30;;;;;;4972534;28;20183;-85
2023/01/17 13:51:10;;;;;;;2.83;1.43;;;6.00;93.60;;;;;;4973402;28;20185;-86
2023/01/17 13:53:35;;;;;;;2.30;1.33;;;5.80;93.90;;;;;;4973429;28;20241;-86
2023/01/17 13:56:12;;;;;;;1.50;1.40;;;5.60;93.60;;;;;;4956165;28;20679;-85
2023/01/17 13:58:50;;;;;;;1.63;1.30;;;5.40;94.30;;;;;;4956240;28;20217;-86
2023/01/17 14:01:42;;;;;;;1.73;1.40;;;5.30;93.60;;;;;;4973223;28;20166;-85
2023/01/17 14:04:09;;;;;;;1.70;1.60;;;5.10;95.50;;;;;;4948160;28;20284;-87
2023/01/17 14:06:35;;;;;;;1.80;1.40;;;5.10;98.20;;;;;;4973129;28;20201;-83
2023/01/17 14:09:06;;;;;;;1.80;1.40;;;4.90;99.90;;;;;;4955843;28;20208;-85
2023/01/17 14:11:48;;;;;;;1.67;1.30;;;4.90;98.00;;;;;;4972987;28;20694;-86
2023/01/17 14:14:36;;;;;;;1.33;1.23;;;4.70;98.20;;;;;;4956283;28;20250;-87
2023/01/17 14:17:17;;;;;;;1.43;1.30;;;4.40;98.80;;;;;;4967148;28;20176;-86
2023/01/17 14:19:45;;;;;;;1.77;1.30;;;4.20;98.70;;;;;;4992005;28;20211;-85
2023/01/17 14:22:20;;;;;;;1.50;1.27;;;4.30;98.30;;;;;;4975007;28;20164;-86
2023/01/17 14:25:08;;;;;;;2.57;1.70;;;4.30;98.40;;;;;;4975260;28;20203;-86
2023/01/17 14:27:41;;;;;;;1.37;1.20;;;4.20;97.90;;;;;;4992507;28;20180;-85
2023/01/17 14:30:33;;;;;;;1.60;1.20;;;4.00;98.50;;;;;;4974851;28;20180;-87
2023/01/17 14:33:09;;;;;;;1.37;1.27;;;3.90;99.90;;;;;;4995520;28;20278;-86
2023/01/17 14:35:56;;;;;;;1.20;1.10;;;4.00;99.90;;;;;;4978975;28;20174;-84
2023/01/17 14:38:25;;;;;;;2.63;1.20;;;4.00;99.90;;;;;;4968710;28;20221;-84
2023/01/17 14:40:59;;;;;;;1.20;1.10;;;4.00;99.20;;;;;;4978541;28;20180;-84
2023/01/17 14:43:28;;;;;;;1.83;1.33;;;4.00;99.90;;;;;;4978761;28;20278;-84
2023/01/17 14:46:03;;;;;;;1.43;1.10;;;4.00;99.90;;;;;;4996163;28;20179;-85
2023/01/17 14:48:29;;;;;;;1.70;1.23;;;4.00;99.90;;;;;;4997055;28;20198;-86